sensor_id;sensor_type;location;lat;lon;timestamp;P1;durP1;ratioP1;P2;durP2;ratioP2
10633;SDS011;5365;51.640;8.106;2023-08-06T00:01:44;2.63;;;1.13;;
10633;SDS011;5365;51.640;8.106;2023-08-06T00:04:44;2.08;;;1.30;;
10633;SDS011;5365;51.640;8.106;2023-08-06T00:07:44;3.23;;;1.57;;
10633;SDS011;5365;51.640;8.106;2023-08-06T00:10:47;3.03;;;1.50;;
10633;SDS011;5365;51.640;8.106;2023-08-06T00:13:47;2.15;;;1.10;;
10633;SDS011;5365;51.640;8.106;2023-08-06T00:16:47;3.33;;;1.92;;
10633;SDS011;5365;51.640;8.106;2023-08-06T00:19:47;2.90;;;1.50;;
10633;SDS011;5365;51.640;8.106;2023-08-06T00:22:47;2.77;;;1.63;;
10633;SDS011;5365;51.640;8.106;2023-08-06T00:25:47;2.85;;;0.95;;
10633;SDS011;5365;51.640;8.106;2023-08-06T00:28:48;3.50;;;1.75;;
10633;SDS011;5365;51.640;8.106;2023-08-06T00:31:48;2.33;;;1.23;;
10633;SDS011;5365;51.640;8.106;2023-08-06T00:34:48;2.13;;;1.53;;
10633;SDS011;5365;51.640;8.106;2023-08-06T00:37:51;2.60;;;1.42;;
10633;SDS011;5365;51.640;8.106;2023-08-06T00:40:51;2.83;;;1.52;;
10633;SDS011;5365;51.640;8.106;2023-08-06T00:43:53;3.72;;;1.38;;
10633;SDS011;5365;51.640;8.106;2023-08-06T00:46:53;2.50;;;1.60;;
10633;SDS011;5365;51.640;8.106;2023-08-06T00:49:53;6.17;;;2.20;;
10633;SDS011;5365;51.640;8.106;2023-08-06T00:52:54;2.57;;;1.67;;
10633;SDS011;5365;51.640;8.106;2023-08-06T00:55:54;2.58;;;1.27;;
10633;SDS011;5365;51.640;8.106;2023-08-06T00:58:54;4.73;;;1.87;;
10633;SDS011;5365;51.640;8.106;2023-08-06T01:01:55;2.67;;;1.47;;
10633;SDS011;5365;51.640;8.106;2023-08-06T01:04:55;2.37;;;1.40;;
10633;SDS011;5365;51.640;8.106;2023-08-06T01:08:01;2.92;;;1.48;;
10633;SDS011;5365;51.640;8.106;2023-08-06T01:11:11;2.30;;;1.25;;
10633;SDS011;5365;51.640;8.106;2023-08-06T01:14:18;5.13;;;1.52;;
10633;SDS011;5365;51.640;8.106;2023-08-06T01:17:22;1.95;;;1.35;;
10633;SDS011;5365;51.640;8.106;2023-08-06T01:20:30;2.25;;;1.45;;
10633;SDS011;5365;51.640;8.106;2023-08-06T01:23:30;2.60;;;1.13;;
10633;SDS011;5365;51.640;8.106;2023-08-06T01:26:33;2.07;;;1.23;;
10633;SDS011;5365;51.640;8.106;2023-08-06T01:29:39;3.88;;;1.30;;
10633;SDS011;5365;51.640;8.106;2023-08-06T01:32:45;2.20;;;1.13;;
10633;SDS011;5365;51.640;8.106;2023-08-06T01:35:46;2.00;;;1.27;;
10633;SDS011;5365;51.640;8.106;2023-08-06T01:38:46;2.28;;;1.13;;
10633;SDS011;5365;51.640;8.106;2023-08-06T01:41:47;1.77;;;0.87;;
10633;SDS011;5365;51.640;8.106;2023-08-06T01:44:47;2.25;;;1.02;;
10633;SDS011;5365;51.640;8.106;2023-08-06T01:47:48;1.80;;;1.00;;
10633;SDS011;5365;51.640;8.106;2023-08-06T01:50:48;1.30;;;0.98;;
10633;SDS011;5365;51.640;8.106;2023-08-06T01:53:48;1.70;;;1.17;;
10633;SDS011;5365;51.640;8.106;2023-08-06T01:56:48;1.70;;;0.97;;
10633;SDS011;5365;51.640;8.106;2023-08-06T01:59:48;3.20;;;1.63;;
10633;SDS011;5365;51.640;8.106;2023-08-06T02:02:49;2.27;;;1.37;;
10633;SDS011;5365;51.640;8.106;2023-08-06T02:05:49;2.47;;;1.43;;
10633;SDS011;5365;51.640;8.106;2023-08-06T02:08:49;1.57;;;0.80;;
10633;SDS011;5365;51.640;8.106;2023-08-06T02:11:50;2.58;;;1.15;;
10633;SDS011;5365;51.640;8.106;2023-08-06T02:14:50;1.40;;;0.87;;
10633;SDS011;5365;51.640;8.106;2023-08-06T02:17:50;1.30;;;0.88;;
10633;SDS011;5365;51.640;8.106;2023-08-06T02:21:00;3.10;;;0.97;;
10633;SDS011;5365;51.640;8.106;2023-08-06T02:24:00;1.77;;;0.85;;
10633;SDS011;5365;51.640;8.106;2023-08-06T02:27:00;1.45;;;0.57;;
10633;SDS011;5365;51.640;8.106;2023-08-06T02:30:01;1.63;;;1.20;;
10633;SDS011;5365;51.640;8.106;2023-08-06T02:33:02;1.27;;;0.70;;
10633;SDS011;5365;51.640;8.106;2023-08-06T02:36:02;3.00;;;1.50;;
10633;SDS011;5365;51.640;8.106;2023-08-06T02:39:06;2.30;;;1.23;;
10633;SDS011;5365;51.640;8.106;2023-08-06T02:42:06;2.47;;;1.10;;
10633;SDS011;5365;51.640;8.106;2023-08-06T02:45:07;1.98;;;1.00;;
10633;SDS011;5365;51.640;8.106;2023-08-06T02:48:08;1.13;;;0.55;;
10633;SDS011;5365;51.640;8.106;2023-08-06T02:51:08;1.93;;;1.13;;
10633;SDS011;5365;51.640;8.106;2023-08-06T02:54:08;2.73;;;1.50;;
10633;SDS011;5365;51.640;8.106;2023-08-06T02:57:08;1.53;;;0.90;;
10633;SDS011;5365;51.640;8.106;2023-08-06T03:00:08;1.73;;;0.93;;
10633;SDS011;5365;51.640;8.106;2023-08-06T03:03:09;1.85;;;1.23;;
10633;SDS011;5365;51.640;8.106;2023-08-06T03:06:09;2.17;;;1.40;;
10633;SDS011;5365;51.640;8.106;2023-08-06T03:09:09;3.15;;;1.27;;
10633;SDS011;5365;51.640;8.106;2023-08-06T03:12:09;2.03;;;1.20;;
10633;SDS011;5365;51.640;8.106;2023-08-06T03:15:10;1.60;;;1.07;;
10633;SDS011;5365;51.640;8.106;2023-08-06T03:18:10;1.03;;;0.60;;
10633;SDS011;5365;51.640;8.106;2023-08-06T03:21:10;2.90;;;1.15;;
10633;SDS011;5365;51.640;8.106;2023-08-06T03:24:10;2.63;;;1.17;;
10633;SDS011;5365;51.640;8.106;2023-08-06T03:27:10;2.75;;;1.05;;
10633;SDS011;5365;51.640;8.106;2023-08-06T03:30:11;2.23;;;1.13;;
10633;SDS011;5365;51.640;8.106;2023-08-06T03:33:11;1.38;;;1.02;;
10633;SDS011;5365;51.640;8.106;2023-08-06T03:36:12;1.95;;;1.05;;
10633;SDS011;5365;51.640;8.106;2023-08-06T03:39:12;2.20;;;1.50;;
10633;SDS011;5365;51.640;8.106;2023-08-06T03:42:13;1.63;;;0.80;;
10633;SDS011;5365;51.640;8.106;2023-08-06T03:45:14;1.88;;;0.93;;
10633;SDS011;5365;51.640;8.106;2023-08-06T03:48:14;1.77;;;1.23;;
10633;SDS011;5365;51.640;8.106;2023-08-06T03:51:14;2.37;;;1.60;;
10633;SDS011;5365;51.640;8.106;2023-08-06T03:54:14;2.55;;;1.38;;
10633;SDS011;5365;51.640;8.106;2023-08-06T03:57:15;2.77;;;1.37;;
10633;SDS011;5365;51.640;8.106;2023-08-06T04:00:15;2.42;;;1.15;;
10633;SDS011;5365;51.640;8.106;2023-08-06T04:03:16;2.03;;;1.30;;
10633;SDS011;5365;51.640;8.106;2023-08-06T04:06:16;2.65;;;1.73;;
10633;SDS011;5365;51.640;8.106;2023-08-06T04:09:17;3.13;;;1.40;;
10633;SDS011;5365;51.640;8.106;2023-08-06T04:12:17;2.87;;;1.53;;
10633;SDS011;5365;51.640;8.106;2023-08-06T04:15:17;2.30;;;1.25;;
10633;SDS011;5365;51.640;8.106;2023-08-06T04:18:17;3.40;;;1.50;;
10633;SDS011;5365;51.640;8.106;2023-08-06T04:21:17;1.80;;;1.53;;
10633;SDS011;5365;51.640;8.106;2023-08-06T04:24:17;1.95;;;1.20;;
10633;SDS011;5365;51.640;8.106;2023-08-06T04:27:18;2.33;;;1.03;;
10633;SDS011;5365;51.640;8.106;2023-08-06T04:30:18;3.17;;;1.58;;
10633;SDS011;5365;51.640;8.106;2023-08-06T04:33:19;3.53;;;1.73;;
10633;SDS011;5365;51.640;8.106;2023-08-06T04:36:20;4.38;;;1.88;;
10633;SDS011;5365;51.640;8.106;2023-08-06T04:39:20;1.97;;;1.10;;
10633;SDS011;5365;51.640;8.106;2023-08-06T04:42:20;2.87;;;1.50;;
10633;SDS011;5365;51.640;8.106;2023-08-06T04:45:20;2.23;;;1.40;;
10633;SDS011;5365;51.640;8.106;2023-08-06T04:48:21;1.73;;;1.20;;
10633;SDS011;5365;51.640;8.106;2023-08-06T04:51:21;2.65;;;1.52;;
10633;SDS011;5365;51.640;8.106;2023-08-06T04:54:21;2.53;;;1.63;;
10633;SDS011;5365;51.640;8.106;2023-08-06T04:57:21;2.33;;;1.40;;
10633;SDS011;5365;51.640;8.106;2023-08-06T05:00:22;4.43;;;2.05;;
10633;SDS011;5365;51.640;8.106;2023-08-06T05:03:22;3.23;;;1.90;;
10633;SDS011;5365;51.640;8.106;2023-08-06T05:06:22;4.40;;;2.17;;
10633;SDS011;5365;51.640;8.106;2023-08-06T05:09:22;2.60;;;1.63;;
10633;SDS011;5365;51.640;8.106;2023-08-06T05:12:23;1.90;;;1.33;;
10633;SDS011;5365;51.640;8.106;2023-08-06T05:15:23;3.43;;;1.60;;
10633;SDS011;5365;51.640;8.106;2023-08-06T05:18:25;4.70;;;1.42;;
10633;SDS011;5365;51.640;8.106;2023-08-06T05:21:25;2.87;;;1.47;;
10633;SDS011;5365;51.640;8.106;2023-08-06T05:24:25;4.00;;;2.13;;
10633;SDS011;5365;51.640;8.106;2023-08-06T05:27:25;3.23;;;1.57;;
10633;SDS011;5365;51.640;8.106;2023-08-06T05:30:26;2.83;;;1.52;;
10633;SDS011;5365;51.640;8.106;2023-08-06T05:33:26;3.00;;;1.93;;
10633;SDS011;5365;51.640;8.106;2023-08-06T05:36:26;3.58;;;2.17;;
10633;SDS011;5365;51.640;8.106;2023-08-06T05:39:26;3.70;;;1.47;;
10633;SDS011;5365;51.640;8.106;2023-08-06T05:42:26;3.72;;;2.28;;
10633;SDS011;5365;51.640;8.106;2023-08-06T05:45:26;4.13;;;1.63;;
10633;SDS011;5365;51.640;8.106;2023-08-06T05:48:27;2.53;;;1.50;;
10633;SDS011;5365;51.640;8.106;2023-08-06T05:51:27;2.47;;;1.48;;
10633;SDS011;5365;51.640;8.106;2023-08-06T05:54:28;3.10;;;1.30;;
10633;SDS011;5365;51.640;8.106;2023-08-06T05:57:28;4.03;;;1.52;;
10633;SDS011;5365;51.640;8.106;2023-08-06T06:00:28;4.00;;;2.17;;
10633;SDS011;5365;51.640;8.106;2023-08-06T06:03:29;3.30;;;1.65;;
10633;SDS011;5365;51.640;8.106;2023-08-06T06:06:29;1.95;;;1.42;;
10633;SDS011;5365;51.640;8.106;2023-08-06T06:09:29;2.93;;;1.30;;
10633;SDS011;5365;51.640;8.106;2023-08-06T06:12:29;2.60;;;1.33;;
10633;SDS011;5365;51.640;8.106;2023-08-06T06:15:30;3.43;;;1.87;;
10633;SDS011;5365;51.640;8.106;2023-08-06T06:18:30;3.17;;;2.00;;
10633;SDS011;5365;51.640;8.106;2023-08-06T06:21:30;3.60;;;2.50;;
10633;SDS011;5365;51.640;8.106;2023-08-06T06:24:30;6.17;;;1.97;;
10633;SDS011;5365;51.640;8.106;2023-08-06T06:27:30;4.43;;;1.93;;
10633;SDS011;5365;51.640;8.106;2023-08-06T06:30:30;4.83;;;2.43;;
10633;SDS011;5365;51.640;8.106;2023-08-06T06:33:31;3.67;;;1.67;;
10633;SDS011;5365;51.640;8.106;2023-08-06T06:36:31;3.30;;;1.67;;
10633;SDS011;5365;51.640;8.106;2023-08-06T06:39:31;2.50;;;1.80;;
10633;SDS011;5365;51.640;8.106;2023-08-06T06:42:31;3.80;;;1.97;;
10633;SDS011;5365;51.640;8.106;2023-08-06T06:45:31;2.43;;;1.43;;
10633;SDS011;5365;51.640;8.106;2023-08-06T06:48:32;4.60;;;1.87;;
10633;SDS011;5365;51.640;8.106;2023-08-06T06:51:32;2.83;;;1.60;;
10633;SDS011;5365;51.640;8.106;2023-08-06T06:54:33;2.27;;;1.60;;
10633;SDS011;5365;51.640;8.106;2023-08-06T06:57:33;3.50;;;1.90;;
10633;SDS011;5365;51.640;8.106;2023-08-06T07:00:35;5.40;;;1.77;;
10633;SDS011;5365;51.640;8.106;2023-08-06T07:03:35;2.80;;;1.50;;
10633;SDS011;5365;51.640;8.106;2023-08-06T07:06:36;3.60;;;1.73;;
10633;SDS011;5365;51.640;8.106;2023-08-06T07:09:36;3.33;;;1.63;;
10633;SDS011;5365;51.640;8.106;2023-08-06T07:12:36;3.87;;;1.50;;
10633;SDS011;5365;51.640;8.106;2023-08-06T07:15:36;2.28;;;1.00;;
10633;SDS011;5365;51.640;8.106;2023-08-06T07:18:37;3.90;;;1.63;;
10633;SDS011;5365;51.640;8.106;2023-08-06T07:21:37;3.20;;;1.43;;
10633;SDS011;5365;51.640;8.106;2023-08-06T07:24:37;2.80;;;1.37;;
10633;SDS011;5365;51.640;8.106;2023-08-06T07:27:38;3.23;;;1.27;;
10633;SDS011;5365;51.640;8.106;2023-08-06T07:30:39;2.13;;;1.23;;
10633;SDS011;5365;51.640;8.106;2023-08-06T07:33:39;2.28;;;1.25;;
10633;SDS011;5365;51.640;8.106;2023-08-06T07:36:39;1.83;;;1.38;;
10633;SDS011;5365;51.640;8.106;2023-08-06T07:39:39;2.47;;;1.60;;
10633;SDS011;5365;51.640;8.106;2023-08-06T07:42:41;3.10;;;1.42;;
10633;SDS011;5365;51.640;8.106;2023-08-06T07:45:41;2.73;;;1.70;;
10633;SDS011;5365;51.640;8.106;2023-08-06T07:48:42;4.55;;;1.35;;
10633;SDS011;5365;51.640;8.106;2023-08-06T07:51:42;2.10;;;1.10;;
10633;SDS011;5365;51.640;8.106;2023-08-06T07:54:42;1.70;;;1.03;;
10633;SDS011;5365;51.640;8.106;2023-08-06T07:57:42;1.77;;;1.30;;
10633;SDS011;5365;51.640;8.106;2023-08-06T08:00:42;1.60;;;0.90;;
10633;SDS011;5365;51.640;8.106;2023-08-06T08:03:45;2.20;;;1.15;;
10633;SDS011;5365;51.640;8.106;2023-08-06T08:06:45;2.03;;;1.00;;
10633;SDS011;5365;51.640;8.106;2023-08-06T08:09:45;4.40;;;1.33;;
10633;SDS011;5365;51.640;8.106;2023-08-06T08:12:48;1.75;;;1.30;;
10633;SDS011;5365;51.640;8.106;2023-08-06T08:15:48;1.93;;;1.00;;
10633;SDS011;5365;51.640;8.106;2023-08-06T08:18:48;1.43;;;0.90;;
10633;SDS011;5365;51.640;8.106;2023-08-06T08:21:49;1.83;;;0.63;;
10633;SDS011;5365;51.640;8.106;2023-08-06T08:24:49;1.88;;;0.90;;
10633;SDS011;5365;51.640;8.106;2023-08-06T08:27:49;3.00;;;0.83;;
10633;SDS011;5365;51.640;8.106;2023-08-06T08:30:49;2.20;;;1.00;;
10633;SDS011;5365;51.640;8.106;2023-08-06T08:33:49;2.10;;;1.00;;
10633;SDS011;5365;51.640;8.106;2023-08-06T08:36:50;1.90;;;0.77;;
10633;SDS011;5365;51.640;8.106;2023-08-06T08:39:50;3.73;;;1.00;;
10633;SDS011;5365;51.640;8.106;2023-08-06T08:42:50;3.83;;;1.00;;
10633;SDS011;5365;51.640;8.106;2023-08-06T08:45:51;3.87;;;0.90;;
10633;SDS011;5365;51.640;8.106;2023-08-06T08:48:51;1.42;;;1.00;;
10633;SDS011;5365;51.640;8.106;2023-08-06T08:51:52;1.83;;;0.75;;
10633;SDS011;5365;51.640;8.106;2023-08-06T08:54:52;1.50;;;0.40;;
10633;SDS011;5365;51.640;8.106;2023-08-06T08:57:53;3.63;;;0.70;;
10633;SDS011;5365;51.640;8.106;2023-08-06T09:00:53;1.47;;;1.00;;
10633;SDS011;5365;51.640;8.106;2023-08-06T09:03:53;1.10;;;0.50;;
10633;SDS011;5365;51.640;8.106;2023-08-06T09:06:54;0.88;;;0.38;;
10633;SDS011;5365;51.640;8.106;2023-08-06T09:09:56;0.93;;;0.45;;
10633;SDS011;5365;51.640;8.106;2023-08-06T09:12:58;1.35;;;0.55;;
10633;SDS011;5365;51.640;8.106;2023-08-06T09:15:59;0.65;;;0.40;;
10633;SDS011;5365;51.640;8.106;2023-08-06T09:19:06;0.97;;;0.40;;
10633;SDS011;5365;51.640;8.106;2023-08-06T09:22:06;0.90;;;0.60;;
10633;SDS011;5365;51.640;8.106;2023-08-06T09:25:11;0.90;;;0.43;;
10633;SDS011;5365;51.640;8.106;2023-08-06T09:28:13;0.77;;;0.30;;
10633;SDS011;5365;51.640;8.106;2023-08-06T09:31:13;0.80;;;0.40;;
10633;SDS011;5365;51.640;8.106;2023-08-06T09:34:17;0.97;;;0.50;;
10633;SDS011;5365;51.640;8.106;2023-08-06T09:37:17;1.30;;;0.47;;
10633;SDS011;5365;51.640;8.106;2023-08-06T09:40:24;0.60;;;0.37;;
10633;SDS011;5365;51.640;8.106;2023-08-06T09:43:24;1.67;;;0.50;;
10633;SDS011;5365;51.640;8.106;2023-08-06T09:46:24;0.87;;;0.40;;
10633;SDS011;5365;51.640;8.106;2023-08-06T09:49:25;0.90;;;0.50;;
10633;SDS011;5365;51.640;8.106;2023-08-06T09:52:26;0.70;;;0.40;;
10633;SDS011;5365;51.640;8.106;2023-08-06T09:55:27;0.90;;;0.40;;
10633;SDS011;5365;51.640;8.106;2023-08-06T09:58:27;0.83;;;0.33;;
10633;SDS011;5365;51.640;8.106;2023-08-06T10:01:27;2.30;;;0.70;;
10633;SDS011;5365;51.640;8.106;2023-08-06T10:04:27;0.87;;;0.50;;
10633;SDS011;5365;51.640;8.106;2023-08-06T10:07:29;0.90;;;0.60;;
10633;SDS011;5365;51.640;8.106;2023-08-06T10:10:30;1.23;;;0.52;;
10633;SDS011;5365;51.640;8.106;2023-08-06T10:13:31;1.27;;;0.52;;
10633;SDS011;5365;51.640;8.106;2023-08-06T10:16:33;1.38;;;0.70;;
10633;SDS011;5365;51.640;8.106;2023-08-06T10:19:34;1.08;;;0.45;;
10633;SDS011;5365;51.640;8.106;2023-08-06T10:22:34;0.60;;;0.30;;
10633;SDS011;5365;51.640;8.106;2023-08-06T10:25:35;0.40;;;0.20;;
10633;SDS011;5365;51.640;8.106;2023-08-06T10:28:39;2.38;;;0.47;;
10633;SDS011;5365;51.640;8.106;2023-08-06T10:34:58;0.82;;;0.35;;
10633;SDS011;5365;51.640;8.106;2023-08-06T10:38:33;2.10;;;0.50;;
10633;SDS011;5365;51.640;8.106;2023-08-06T10:41:31;1.52;;;0.40;;
10633;SDS011;5365;51.640;8.106;2023-08-06T10:44:32;1.45;;;0.52;;
10633;SDS011;5365;51.640;8.106;2023-08-06T10:47:37;0.95;;;0.40;;
10633;SDS011;5365;51.640;8.106;2023-08-06T10:50:38;0.80;;;0.50;;
10633;SDS011;5365;51.640;8.106;2023-08-06T10:53:47;1.30;;;0.50;;
10633;SDS011;5365;51.640;8.106;2023-08-06T10:56:47;0.77;;;0.38;;
10633;SDS011;5365;51.640;8.106;2023-08-06T10:59:48;0.95;;;0.47;;
10633;SDS011;5365;51.640;8.106;2023-08-06T11:02:48;1.23;;;0.63;;
10633;SDS011;5365;51.640;8.106;2023-08-06T11:05:49;2.05;;;0.45;;
10633;SDS011;5365;51.640;8.106;2023-08-06T11:08:50;4.28;;;0.60;;
10633;SDS011;5365;51.640;8.106;2023-08-06T11:11:50;1.63;;;0.85;;
10633;SDS011;5365;51.640;8.106;2023-08-06T11:14:51;2.17;;;0.60;;
10633;SDS011;5365;51.640;8.106;2023-08-06T11:17:51;1.33;;;0.60;;
10633;SDS011;5365;51.640;8.106;2023-08-06T11:20:51;1.23;;;0.60;;
10633;SDS011;5365;51.640;8.106;2023-08-06T11:23:51;2.77;;;0.60;;
10633;SDS011;5365;51.640;8.106;2023-08-06T11:26:52;1.20;;;0.68;;
10633;SDS011;5365;51.640;8.106;2023-08-06T11:29:52;1.57;;;0.70;;
10633;SDS011;5365;51.640;8.106;2023-08-06T11:32:52;1.20;;;0.43;;
10633;SDS011;5365;51.640;8.106;2023-08-06T11:35:54;2.40;;;0.83;;
10633;SDS011;5365;51.640;8.106;2023-08-06T11:38:54;1.73;;;0.90;;
10633;SDS011;5365;51.640;8.106;2023-08-06T11:41:55;1.80;;;1.13;;
